Detall de PIREP

Printer-friendly versionPDF version

[2009/02/06 21:13:00]
Flight IATA:CT2100
Pilot Number:041
Company ICAO:CAT
Aircraft Type:AT72/F
PAX:64
Departing Airport: LEVC
Destination Airport: LEAS
Alternate Airport:LEST
Online: VATSIM
Route:CENTA2A A33 PRADO A33 CJN A33 HORTA A33 MAGIN A33 INDEG A33 DISKO A33 ZMR R107 VEDER R107 MERCE R107 RATPO
Flight Level:FL190
No Slew and time accel
No pause
Crash detect
Detect pilot in Cockpit between each 30 and 45 minutes
21:13 Zero fuel Weight: 41587 Lbs, Fuel Weight: 4146 Lbs
21:13 VATSIM:LEVC 062100Z 29015KT 9999 FEW025 SCT050 08/M04 Q0996 NOSIG
21:13 VATSIM:LEAS 062100Z 24007KT 9999 BKN020TCU BKN050 04/01 Q1002 TEMPO TSRA SCT015CB
21:14 VOICE CATALONIAN
21:16 Parking Brakes off
21:23 Take-off
21:23 Take off Weight: 45648 Lbs
21:23 Wind: 293º @ 014 Knots Heading: 295º
21:23 POS N39º 29´ 18´´ W000º 28´ 45´´
21:23 Flaps:1 at 135 Knots
21:23 Gear Up: 136 Knots
21:23
Flaps:0 at 160 Knots
21:38 Wind:325º@011 Knots Heading: 300º Ground Speed: 218 Knots Altitude 15479 ft
21:41 TOC
21:41 Fuel Weight: 3455 Lb
21:53 Wind:320º@049 Knots Heading: 301º Ground Speed: 236 Knots Altitude 18579 ft
22:08 Wind:324º@050 Knots Heading: 301º Ground Speed: 241 Knots Altitude 18582 ft
22:23 Wind:337º@048 Knots Heading: 302º Ground Speed: 243 Knots Altitude 18602 ft
22:24 TOD
22:24 Fuel Weight: 2219 Lb
22:38 Wind:337º@042 Knots Heading: 349º Ground Speed: 235 Knots Altitude 15580 ft
22:53 Wind:340º@029 Knots Heading: 350º Ground Speed: 222 Knots Altitude 9612 ft
23:04 Flaps:1 at 214 Knots
23:05 Gear Down: 176 Knots
23:06 Flaps:2 at 129 Knots
23:06 TouchDown:Rate -498 ft/min Speed: 100 Knots
23:07 Flaps:0 at 81 Knots
23:07 VATSIM:LEAS 062230Z 23011KT 9999 -SHRA SCT030TCU BKN040 03/00 Q1003 TEMPO TS SCT015CB
23:07 Land
23:07 Wind:215º@005 Knot
s
23:07 Heading: 288º
23:07 Flight Duration: 01:44
23:07 Landing Weight: 42870 Lbs
23:07 POS N43º 33´ 46´´ W006º 01´ 53´´
23:10 Parking brakes on
23:10 Block to Block Duration: 01:54
23:10 Final Fuel: 1258 Lbls
23:10 Spent Fuel: 2888 Lbls
23:10 Flight Length: 401 NM
23:10 TOD Land Length: 162 NM

Exportar CSV

Powered by Drupal - Modified by Danger4k